Rembert, South Carolina
Current Conditions -  °F | °C
As of 8:58 AM on Saturday 22 Nov 2014 (Local Time) from KSSC Reporting Station
Clear Clear  
Wind Chill:   Ceiling: Unl
Heat Index:   Visibility: 10mi
Dew Point: -6°   Wind: 7mph
Humidity: 53%   Direction: 60°ENE
Pressure: 30.54"   Gusts: NA
Location:  34.1°N, 80.53°W
Report Text: KSSC 221358Z AUTO 06006KT 10SM CLR 03/M06 A3054 RMK AO2 SLP345 T00321057 $
Loading
Personal Weather Stations






























Interactive Weather Map New forecast layout! Learn more

10-Day Weather Forecast

Advertisements
Track Severe Weather on mobile